Flight Track Log - Related Links

Times and Time Zones

All times are in EDT time to prevent confusion due to time zone crossing. See the EJA829P flight status page for this flight to view local times or setup timezone preferences in your user account.

Time Position Orientation Groundspeed Altitude Reporting Facility
EDT Latitude Longitude Course Direction KTS MPH feet Rate Location/Type
Wed 09:56:17 PM 43.4375 -70.7044 301° West 156 180 8,000  Level Boston Center
Wed 09:57:18 PM 43.4261 -70.7706 257° West 105 121 11,300 3,450 Climbing Boston Center
Wed 09:58:17 PM 43.4042 -70.8511 249° West 199 229 14,900 3,328 Climbing Boston Center
Wed 09:59:17 PM 43.3867 -70.9289 253° West 214 246 17,900 2,450 Climbing Boston Center
Wed 10:00:17 PM 43.3667 -71.0092 251° West 219 252 19,800 1,050 Climbing Boston Center
Wed 10:01:17 PM 43.3431 -71.1069 252° West 246 283 20,000 99 Climbing Boston Center
Wed 10:02:18 PM 43.3108 -71.2275 250° West 298 343 20,000  Level Boston Center
Wed 10:03:18 PM 43.2831 -71.3506 253° West 331 381 20,000  Level Boston Center
Wed 10:04:17 PM 43.2486 -71.4708 249° West 337 388 20,000  Level Boston Center
Wed 10:05:17 PM 43.2183 -71.5853 250° West 337 388 20,000  Level Boston Center
Wed 10:06:18 PM 43.2067 -71.7022 262° West 332 382 20,000  Level Boston Center
Wed 10:07:17 PM 43.1908 -71.8278 260° West 337 388 20,000  Level Boston Center
Wed 10:08:17 PM 43.1747 -71.9533 260° West 337 388 20,000  Level Boston Center
Wed 10:09:18 PM 43.1606 -72.0814 261° West 337 388 20,000  Level Boston Center
Wed 10:10:17 PM 43.1442 -72.2039 260° West 337 388 20,000  Level Boston Center
Wed 10:11:18 PM 43.1319 -72.3378 263° West 332 382 20,000  Level Boston Center
Wed 10:12:18 PM 43.1153 -72.4628 260° West 332 382 20,000 -250 Level Boston Center
Wed 10:13:18 PM 43.0922 -72.5794 255° West 332 382 19,500 -650 Descending Boston Center
Wed 10:14:18 PM 43.0294 -72.6672 226° Southwest 331 381 18,700 -908 Descending Boston Center
Wed 10:15:17 PM 42.9669 -72.7664 229° Southwest 347 399 17,700 -1,000 Descending Boston Center
Wed 10:16:18 PM 42.9019 -72.8625 227° Southwest 352 405 16,700 -1,263 Descending Boston Center
Wed 10:17:30 PM 42.8244 -72.9750 227° Southwest 352 405 14,900 -1,237 Descending Boston Center
Wed 10:18:29 PM 42.7592 -73.0706 227° Southwest 344 396 14,000 -450 Descending Boston Center
Wed 10:19:30 PM 42.6878 -73.1717 226° Southwest 339 390 14,000  Level Boston Center
Wed 10:20:30 PM 42.6308 -73.2528 226° Southwest 339 390 14,000  Level Boston Center
Wed 10:21:29 PM 42.5408 -73.3219 210° Southwest 339 390 14,000  Level Boston Center
Wed 10:22:29 PM 42.4592 -73.3658 202° Southwest 347 399 14,000  Level Boston Center
Wed 10:23:29 PM 42.3608 -73.4150 200° South 352 405 14,000  Level Boston Center
Wed 10:24:30 PM 42.2769 -73.4614 202° Southwest 352 405 14,000  Level Boston Center
Wed 10:25:30 PM 42.1764 -73.5131 201° Southwest 357 411 14,000 -250 Level Boston Center
Wed 10:26:30 PM 42.0886 -73.5564 200° South 351 404 13,500 -857 Descending Boston Center
Wed 10:27:29 PM 42.0028 -73.5994 200° South 342 394 12,300 -1,150 Descending Boston Center
Wed 10:28:30 PM 41.9231 -73.6400 201° Southwest 337 388 11,200 -1,200 Descending Boston Center
Wed 10:29:29 PM 41.8350 -73.6828 200° South 317 365 9,900 -1,250 Descending Boston Center
Wed 10:30:30 PM 41.7681 -73.7175 201° Southwest 296 341 8,700 -1,240 Descending Boston Center
Wed 10:31:30 PM 41.6925 -73.7550 200° South 281 323 7,400 -1,054 Descending Boston Center
Wed 10:32:58 PM 41.6000 -73.8000 200° South 263 303 6,100 -506 Descending New York TRACON
Wed 10:34:04 PM 41.5167 -73.8333 197° South 263 303 6,100  Level New York TRACON
Wed 10:35:04 PM 41.4500 -73.8667 201° Southwest 263 303 6,100 -400 Level New York TRACON
Wed 10:36:04 PM 41.3667 -73.8833 189° South 260 299 5,300 -1,400 Descending New York TRACON
Wed 10:37:04 PM 41.3000 -73.8833 180° South 254 292 3,300 -1,158 Descending New York TRACON
Wed 10:37:58 PM 41.2500 -73.8500 153° Southeast 229 264 3,100 -100 Descending New York TRACON
Wed 10:39:04 PM 41.2000 -73.8000 143° Southeast 202 232 3,100 -476 Level New York TRACON
Wed 10:40:04 PM 41.1500 -73.7667 153° Southeast 163 188 2,100 -800 Descending New York TRACON
Wed 10:41:04 PM 41.1167 -73.7500 159° South 126 145 1,500 -600 Descending New York TRACON
Wed 10:42:04 PM 41.1000 -73.7333 143° Southeast 121 139 900 -600 Descending New York TRACON

Login

Don't have an account? Register now (free) for customized features, flight alerts, and more!